Time;durP1;ratioP1;P1;durP2;ratioP2;P2;SDS_P1;SDS_P2;PMS_P1;PMS_P2;Temp;Humidity;BMP_temperature;BMP_pressure;BME280_temperature;BME280_humidity;BME280_pressure;Samples;Min_cycle;Max_cycle;Signal;HPM_P1;HPM_P2
2022/07/23 00:01:57;;;;;;;12.15;6.87;;;;;;;15.20;100.00;99735.09;1785778;80;21156;-80
2022/07/23 00:05:03;;;;;;;13.48;6.15;;;;;;;15.20;100.00;99732.86;1785347;79;21160;-80
2022/07/23 00:08:09;;;;;;;12.90;6.05;;;;;;;15.22;100.00;99744.50;1785722;80;21173;-80
2022/07/23 00:11:16;;;;;;;7.90;6.53;;;;;;;15.23;100.00;99751.16;1784491;79;21232;-80
2022/07/23 00:14:22;;;;;;;12.58;6.35;;;;;;;15.24;100.00;99751.99;1785708;80;21165;-80
2022/07/23 00:17:28;;;;;;;9.13;6.80;;;;;;;15.24;100.00;99752.87;1785652;80;21634;-80
2022/07/23 00:20:34;;;;;;;11.45;6.67;;;;;;;15.24;100.00;99743.73;1784741;79;21738;-79
2022/07/23 00:23:40;;;;;;;9.90;7.00;;;;;;;15.24;100.00;99740.47;1785694;80;21152;-78
2022/07/23 00:26:46;;;;;;;11.05;6.62;;;;;;;15.24;100.00;99745.98;1784392;79;21272;-80
2022/07/23 00:29:52;;;;;;;11.40;6.58;;;;;;;15.24;100.00;99745.98;1785596;79;21192;-81
2022/07/23 00:33:01;;;;;;;9.10;5.90;;;;;;;15.22;100.00;99750.84;1784244;80;21181;-80
2022/07/23 00:36:07;;;;;;;12.60;5.87;;;;;;;15.20;100.00;99753.53;1785702;79;21698;-81
2022/07/23 00:39:06;;;;;;;20.72;6.20;;;;;;;15.16;100.00;99752.27;1785722;80;21200;-80
2022/07/23 00:42:11;;;;;;;13.13;6.12;;;;;;;15.11;100.00;99751.55;1785918;80;21153;-81
2022/07/23 00:45:17;;;;;;;14.63;6.83;;;;;;;15.08;100.00;99747.31;1785748;79;21184;-81
2022/07/23 00:48:23;;;;;;;11.83;7.47;;;;;;;15.06;100.00;99750.83;1784278;80;21160;-80
2022/07/23 00:51:29;;;;;;;9.95;7.58;;;;;;;15.01;100.00;99747.89;1784050;79;21197;-80
2022/07/23 00:54:34;;;;;;;8.95;7.17;;;;;;;15.02;100.00;99755.62;1785683;79;21180;-80
2022/07/23 00:57:40;;;;;;;10.50;7.70;;;;;;;14.98;100.00;99752.45;1785776;80;21131;-80
2022/07/23 01:00:46;;;;;;;12.30;7.30;;;;;;;14.98;100.00;99751.07;1785822;79;21161;-80
2022/07/23 01:03:52;;;;;;;11.85;7.05;;;;;;;14.97;100.00;99748.55;1785781;80;21204;-80
2022/07/23 01:06:58;;;;;;;11.25;6.67;;;;;;;14.97;100.00;99749.39;1785681;80;21215;-79
2022/07/23 01:10:04;;;;;;;15.53;5.80;;;;;;;14.99;100.00;99754.67;1785802;79;21212;-80
2022/07/23 01:13:16;;;;;;;13.48;6.90;;;;;;;15.00;100.00;99757.20;1785866;80;21149;-80
2022/07/23 01:16:22;;;;;;;10.68;5.97;;;;;;;15.02;100.00;99762.50;1785853;79;21196;-80
2022/07/23 01:19:28;;;;;;;10.08;5.40;;;;;;;15.02;100.00;99759.22;1785638;79;21161;-80
2022/07/23 01:22:37;;;;;;;11.25;5.58;;;;;;;15.02;100.00;99762.50;1784257;80;21748;-81
2022/07/23 01:25:43;;;;;;;11.38;6.25;;;;;;;15.01;100.00;99756.16;1784541;79;21674;-81
2022/07/23 01:28:49;;;;;;;11.93;6.70;;;;;;;14.99;100.00;99756.89;1785698;80;21137;-80
2022/07/23 01:31:56;;;;;;;9.28;6.60;;;;;;;14.97;100.00;99756.27;1784483;80;21189;-81
2022/07/23 01:35:01;;;;;;;16.20;6.90;;;;;;;14.95;100.00;99761.67;1785763;79;21188;-81
2022/07/23 01:38:08;;;;;;;10.85;7.05;;;;;;;14.92;100.00;99766.26;1785642;80;21184;-81
2022/07/23 01:41:13;;;;;;;13.18;7.28;;;;;;;14.90;100.00;99765.08;1784273;79;21196;-81
2022/07/23 01:44:19;;;;;;;10.98;6.22;;;;;;;14.88;100.00;99770.51;1785671;80;21224;-81
2022/07/23 01:47:25;;;;;;;16.52;8.63;;;;;;;14.86;100.00;99767.95;1784268;80;21157;-81
2022/07/23 01:50:30;;;;;;;16.07;10.28;;;;;;;14.85;100.00;99773.69;1785135;79;21160;-79
2022/07/23 01:53:45;;;;;;;16.02;9.65;;;;;;;14.83;100.00;99769.78;1772387;80;21307;-80
2022/07/23 01:56:52;;;;;;;16.00;9.95;;;;;;;14.81;100.00;99765.84;1771866;81;21156;-80
2022/07/23 01:59:57;;;;;;;19.20;11.78;;;;;;;14.81;100.00;99773.27;1771860;79;21189;-81
2022/07/23 02:03:09;;;;;;;19.48;12.93;;;;;;;14.81;100.00;99778.77;1770849;81;21166;-80
2022/07/23 02:06:14;;;;;;;28.67;13.35;;;;;;;14.82;100.00;99779.95;1770989;79;21185;-80
2022/07/23 02:09:14;;;;;;;20.72;13.50;;;;;;;14.83;100.00;99774.75;1770719;80;21660;-80
2022/07/23 02:12:06;;;;;;;18.52;13.13;;;;;;;14.85;100.00;99788.29;1771213;81;21193;-80
2022/07/23 02:14:54;;;;;;;28.23;13.22;;;;;;;14.86;100.00;99788.59;1770443;79;21201;-80
2022/07/23 02:17:46;;;;;;;25.65;13.43;;;;;;;14.87;100.00;99794.95;1771963;81;21170;-79
2022/07/23 02:20:32;;;;;;;20.57;12.60;;;;;;;14.87;100.00;99801.33;1771437;79;21292;-79
2022/07/23 02:23:25;;;;;;;23.25;12.98;;;;;;;14.90;100.00;99800.03;1770399;81;21244;-80
2022/07/23 02:26:37;;;;;;;15.18;10.72;;;;;;;14.91;100.00;99796.20;1770866;79;21173;-79
2022/07/23 02:29:31;;;;;;;18.65;10.82;;;;;;;15.01;100.00;99796.09;1772096;79;21150;-81
2022/07/23 02:32:39;;;;;;;18.82;10.35;;;;;;;15.26;100.00;99796.72;1771362;81;21161;-80
2022/07/23 02:35:45;;;;;;;16.52;9.55;;;;;;;15.57;100.00;99800.91;1771138;79;21652;-80
2022/07/23 02:38:52;;;;;;;13.15;8.60;;;;;;;15.93;100.00;99800.78;1770945;81;21244;-80
2022/07/23 02:41:58;;;;;;;16.20;8.65;;;;;;;16.28;100.00;99805.83;1771974;81;21727;-81
2022/07/23 02:45:04;;;;;;;15.85;8.00;;;;;;;16.61;100.00;99804.13;1771734;79;21229;-80
2022/07/23 02:48:12;;;;;;;16.95;8.35;;;;;;;16.94;100.00;99802.42;1770616;81;21166;-81
2022/07/23 02:51:18;;;;;;;13.20;8.00;;;;;;;17.26;100.00;99804.98;1770439;79;21169;-80
2022/07/23 02:54:26;;;;;;;12.47;7.60;;;;;;;17.59;100.00;99810.08;1771388;79;21177;-80
2022/07/23 02:57:35;;;;;;;12.13;7.15;;;;;;;17.88;97.29;99809.81;1772032;81;21150;-80
2022/07/23 03:00:41;;;;;;;11.80;7.08;;;;;;;18.03;94.37;99808.82;1771308;79;21237;-81
2022/07/23 03:03:49;;;;;;;11.25;7.05;;;;;;;18.20;92.67;99810.88;1770873;81;21153;-80
2022/07/23 03:06:54;;;;;;;8.43;5.72;;;;;;;18.39;90.65;99806.93;1771774;81;21162;-80
2022/07/23 03:10:00;;;;;;;9.05;5.65;;;;;;;18.59;88.54;99823.22;1771776;79;21173;-79
2022/07/23 03:12:59;;;;;;;9.65;5.78;;;;;;;18.64;86.93;99824.72;1771558;81;21165;-78
2022/07/23 03:16:06;;;;;;;9.58;6.28;;;;;;;18.56;86.26;99823.14;1770962;79;21181;-79
2022/07/23 03:19:07;;;;;;;9.90;6.55;;;;;;;18.45;86.69;99822.61;1771929;81;21129;-79
2022/07/23 03:22:13;;;;;;;10.20;6.33;;;;;;;18.38;87.21;99820.48;1771925;81;21161;-81
2022/07/23 03:25:19;;;;;;;12.18;7.12;;;;;;;18.40;87.54;99823.87;1771499;79;21236;-79
2022/07/23 03:28:25;;;;;;;8.75;6.25;;;;;;;18.39;87.52;99831.84;1771867;81;21817;-79
2022/07/23 03:31:33;;;;;;;13.13;7.15;;;;;;;18.43;87.85;99831.67;1770617;79;21165;-80
2022/07/23 03:34:40;;;;;;;10.48;6.92;;;;;;;18.56;87.66;99820.38;1770819;79;21185;-80
2022/07/23 03:37:46;;;;;;;12.95;7.40;;;;;;;18.73;86.48;99821.92;1771928;81;21714;-80
2022/07/23 03:40:52;;;;;;;9.78;6.97;;;;;;;18.77;86.27;99823.64;1771305;79;21742;-79
2022/07/23 03:44:00;;;;;;;9.83;6.42;;;;;;;18.84;86.19;99818.29;1771134;81;21687;-79
2022/07/23 03:47:06;;;;;;;9.08;7.60;;;;;;;18.94;85.37;99820.45;1770510;81;21166;-80
2022/07/23 03:50:12;;;;;;;12.82;8.53;;;;;;;18.90;85.07;99811.77;1771582;79;21224;-80
2022/07/23 03:53:18;;;;;;;13.10;8.35;;;;;;;18.82;85.23;99815.45;1771642;81;21165;-80
2022/07/23 03:56:26;;;;;;;12.98;7.92;;;;;;;18.75;85.92;99813.36;1783617;79;21228;-80
2022/07/23 03:59:31;;;;;;;13.95;8.63;;;;;;;18.72;86.33;99820.21;1785624;79;21690;-79
2022/07/23 04:02:37;;;;;;;11.40;9.38;;;;;;;18.74;86.48;99819.98;1785655;80;21824;-80
2022/07/23 04:05:43;;;;;;;11.88;8.35;;;;;;;18.67;86.44;99820.06;1785019;79;21200;-81
2022/07/23 04:08:50;;;;;;;14.35;9.60;;;;;;;18.51;87.05;99813.88;1784404;80;21713;-81
2022/07/23 04:11:57;;;;;;;16.32;8.40;;;;;;;18.36;88.16;99812.97;1785773;80;21164;-78
2022/07/23 04:15:03;;;;;;;20.77;9.90;;;;;;;18.26;89.21;99816.88;1784285;79;21686;-79
2022/07/23 04:18:08;;;;;;;18.70;8.55;;;;;;;18.15;90.42;99807.45;1784168;80;21181;-79
2022/07/23 04:21:16;;;;;;;9.95;7.72;;;;;;;18.10;91.57;99806.77;1766243;80;21231;-80
2022/07/23 04:24:23;;;;;;;11.60;7.78;;;;;;;18.13;91.51;99813.23;1769431;81;21181;-80
2022/07/23 04:27:29;;;;;;;11.80;8.08;;;;;;;18.16;91.06;99817.97;1770405;81;21205;-80
2022/07/23 04:30:36;;;;;;;10.78;7.45;;;;;;;18.12;91.20;99821.78;1770063;81;21220;-79
2022/07/23 04:33:42;;;;;;;12.55;7.65;;;;;;;18.14;91.77;99821.83;1770472;81;21196;-79
2022/07/23 04:36:48;;;;;;;10.43;7.72;;;;;;;18.20;91.41;99829.72;1769095;81;21785;-79
2022/07/23 04:39:56;;;;;;;17.10;7.83;;;;;;;18.24;91.55;99824.55;1770387;81;21856;-80
2022/07/23 04:43:02;;;;;;;21.05;6.58;;;;;;;18.29;90.86;99825.52;1770426;81;21173;-80
2022/07/23 04:46:10;;;;;;;8.10;6.25;;;;;;;18.35;91.02;99827.90;1769646;81;21786;-80
2022/07/23 04:49:16;;;;;;;11.40;7.00;;;;;;;18.49;90.61;99838.17;1770652;81;21141;-80
2022/07/23 04:52:21;;;;;;;6.30;5.70;;;;;;;18.69;89.92;99833.73;1770584;81;21169;-81
2022/07/23 04:55:20;;;;;;;8.68;7.17;;;;;;;18.83;88.45;99822.70;1762756;80;21184;-80
2022/07/23 04:58:12;;;;;;;7.47;6.12;;;;;;;18.92;86.96;99825.95;1765760;80;21142;-80
2022/07/23 05:01:18;;;;;;;7.35;5.30;;;;;;;18.94;86.96;99842.61;1770611;81;21197;-81
2022/07/23 05:04:24;;;;;;;9.30;5.08;;;;;;;19.01;87.31;99841.95;1769345;81;21718;-81
2022/07/23 05:07:29;;;;;;;6.03;5.37;;;;;;;19.11;86.22;99846.88;1768276;80;21718;-80
2022/07/23 05:10:35;;;;;;;7.12;5.55;;;;;;;19.14;85.57;99856.92;1769599;81;21757;-80
2022/07/23 05:13:43;;;;;;;7.55;4.85;;;;;;;19.19;86.12;99851.19;1759863;81;21736;-79
2022/07/23 05:16:48;;;;;;;5.55;4.53;;;;;;;19.32;85.43;99848.16;1743556;80;21278;-80
2022/07/23 05:19:54;;;;;;;5.25;4.30;;;;;;;19.48;84.45;99852.95;1726762;83;21773;-78
2022/07/23 05:23:02;;;;;;;7.80;4.35;;;;;;;19.61;82.98;99848.52;1726966;83;21173;-78
2022/07/23 05:26:08;;;;;;;7.55;4.60;;;;;;;19.73;82.21;99843.48;1727979;80;21220;-80
2022/07/23 05:29:14;;;;;;;9.08;4.67;;;;;;;19.87;81.77;99853.19;1747924;80;21149;-79
2022/07/23 05:32:20;;;;;;;8.85;4.28;;;;;;;20.01;80.46;99848.18;1742312;82;21169;-80
2022/07/23 05:35:27;;;;;;;7.95;3.83;;;;;;;20.11;79.66;99846.42;1720894;83;21209;-81
2022/07/23 05:38:35;;;;;;;4.95;3.60;;;;;;;20.23;79.38;99842.72;1779876;80;21710;-80
2022/07/23 05:41:41;;;;;;;12.03;3.67;;;;;;;20.35;77.71;99854.06;1761997;80;21728;-81
2022/07/23 05:44:47;;;;;;;5.37;3.98;;;;;;;20.38;77.29;99848.02;1718488;83;21203;-80
2022/07/23 05:47:57;;;;;;;10.28;3.90;;;;;;;20.43;77.09;99838.92;1726835;83;21173;-80
2022/07/23 05:51:09;;;;;;;5.72;3.58;;;;;;;20.52;76.26;99840.77;1726054;80;21188;-78
2022/07/23 05:54:15;;;;;;;6.05;3.90;;;;;;;20.57;75.78;99840.30;1740119;82;21157;-78
2022/07/23 05:57:21;;;;;;;11.95;3.80;;;;;;;20.62;75.30;99842.32;1748111;81;21169;-78
2022/07/23 06:00:27;;;;;;;3.85;3.20;;;;;;;20.71;75.70;99849.13;1769732;81;21197;-80
2022/07/23 06:03:32;;;;;;;4.97;3.67;;;;;;;20.82;75.02;99851.52;1770231;81;21145;-80
2022/07/23 06:06:39;;;;;;;7.87;4.15;;;;;;;20.87;74.36;99852.98;1748478;81;21233;-79
2022/07/23 06:09:46;;;;;;;5.65;3.98;;;;;;;20.93;74.55;99852.78;1770472;81;21271;-80
2022/07/23 06:12:53;;;;;;;8.90;3.70;;;;;;;21.04;72.83;99857.97;1737195;81;21176;-80
2022/07/23 06:16:01;;;;;;;6.58;3.90;;;;;;;21.15;72.15;99851.44;1717308;83;21196;-80
2022/07/23 06:19:06;;;;;;;9.63;4.08;;;;;;;21.32;72.34;99858.94;1716333;83;21762;-79
2022/07/23 06:22:13;;;;;;;5.60;2.70;;;;;;;21.54;71.82;99847.24;1711848;82;21212;-79
2022/07/23 06:25:20;;;;;;;4.47;3.15;;;;;;;21.72;71.15;99864.16;1733982;82;21212;-81
2022/07/23 06:28:25;;;;;;;8.20;3.08;;;;;;;21.82;68.90;99856.48;1749276;82;21169;-81
2022/07/23 06:31:32;;;;;;;7.70;3.98;;;;;;;21.84;66.89;99859.86;1748889;82;21208;-82
2022/07/23 06:34:38;;;;;;;7.05;3.65;;;;;;;21.89;67.65;99857.13;1749958;82;21169;-80
2022/07/23 06:37:39;;;;;;;10.08;3.30;;;;;;;21.85;67.58;99860.14;1749290;82;21188;-81
2022/07/23 06:40:47;;;;;;;3.02;2.47;;;;;;;21.75;68.50;99851.68;1749231;82;21808;-81
2022/07/23 06:43:52;;;;;;;3.17;2.40;;;;;;;21.80;67.31;99852.57;1750084;82;21212;-81
2022/07/23 06:46:58;;;;;;;4.83;2.95;;;;;;;21.89;66.92;99852.95;1749423;82;21176;-80
2022/07/23 06:50:03;;;;;;;10.18;3.42;;;;;;;22.00;67.47;99851.11;1704487;83;21215;-79
2022/07/23 06:53:08;;;;;;;3.65;2.47;;;;;;;22.18;67.67;99865.53;1734339;82;21254;-80
2022/07/23 06:56:14;;;;;;;3.87;2.60;;;;;;;22.46;65.27;99884.46;1734467;82;21823;-79
2022/07/23 06:59:20;;;;;;;2.62;2.30;;;;;;;22.73;65.45;99869.65;1722341;82;21208;-81
2022/07/23 07:02:25;;;;;;;6.55;2.50;;;;;;;22.90;63.63;99866.99;1744132;80;21169;-80
2022/07/23 07:05:30;;;;;;;7.83;2.52;;;;;;;22.89;62.62;99875.64;1749972;82;21232;-81
2022/07/23 07:08:36;;;;;;;3.83;2.10;;;;;;;22.74;62.95;99885.26;1747705;80;21247;-79
2022/07/23 07:11:44;;;;;;;4.17;2.27;;;;;;;22.52;62.29;99888.97;1739543;82;21765;-81
2022/07/23 07:14:50;;;;;;;3.08;2.67;;;;;;;22.43;63.52;99883.03;1749518;82;21745;-80
2022/07/23 07:17:55;;;;;;;6.67;2.62;;;;;;;22.60;64.19;99884.31;1749633;82;21785;-79
2022/07/23 07:21:02;;;;;;;2.50;2.00;;;;;;;22.78;63.45;99890.59;1748784;82;21264;-79
2022/07/23 07:24:08;;;;;;;3.92;2.45;;;;;;;22.86;61.14;99885.89;1717043;82;21201;-80
2022/07/23 07:27:31;;;;;;;2.70;2.12;;;;;;;22.80;61.29;99894.78;1727214;81;21175;-80
2022/07/23 07:30:36;;;;;;;3.40;2.40;;;;;;;22.74;61.06;99900.03;1727250;81;21196;-78
2022/07/23 07:33:42;;;;;;;6.20;2.80;;;;;;;22.79;60.60;99892.27;1726476;81;21215;-81
2022/07/23 07:36:49;;;;;;;4.00;2.45;;;;;;;22.78;61.54;99894.77;1741133;82;21197;-82
2022/07/23 07:39:55;;;;;;;3.17;2.25;;;;;;;22.80;61.33;99896.73;1742862;82;21716;-80
2022/07/23 07:43:03;;;;;;;2.83;2.60;;;;;;;22.88;61.07;99906.00;1737426;80;21235;-81
2022/07/23 07:46:11;;;;;;;4.90;3.00;;;;;;;22.97;59.32;99910.01;1738466;80;21188;-81
2022/07/23 07:49:19;;;;;;;10.05;2.40;;;;;;;23.03;59.40;99892.19;1754010;82;21173;-80
2022/07/23 07:52:27;;;;;;;6.90;2.60;;;;;;;23.23;59.40;99897.61;1764190;81;21227;-81
2022/07/23 07:55:32;;;;;;;2.55;2.30;;;;;;;23.53;59.80;99895.56;1752796;80;21148;-81
2022/07/23 07:58:38;;;;;;;7.87;2.35;;;;;;;23.78;58.14;99911.61;1735290;81;21192;-82
2022/07/23 08:01:44;;;;;;;3.47;2.27;;;;;;;23.80;54.88;99910.20;1754254;81;21220;-82
2022/07/23 08:04:51;;;;;;;3.15;2.25;;;;;;;23.76;54.02;99906.84;1735113;80;21717;-80
2022/07/23 08:07:57;;;;;;;2.37;2.15;;;;;;;23.79;54.97;99904.91;1728542;83;21268;-82
2022/07/23 08:10:58;;;;;;;6.15;2.12;;;;;;;23.88;53.26;99927.00;1731092;81;21789;-80
2022/07/23 08:14:04;;;;;;;2.22;1.67;;;;;;;23.96;53.34;99905.53;1766196;80;21695;-80
2022/07/23 08:17:12;;;;;;;6.15;2.42;;;;;;;24.10;53.39;99914.23;1757496;80;21235;-80
2022/07/23 08:20:18;;;;;;;4.33;2.22;;;;;;;24.02;52.29;99916.16;1740474;80;21179;-80
2022/07/23 08:23:25;;;;;;;4.28;2.80;;;;;;;23.77;52.93;99914.96;1722901;82;21209;-80
2022/07/23 08:26:31;;;;;;;2.92;2.62;;;;;;;23.62;54.09;99907.33;1717710;81;21231;-79
2022/07/23 08:29:38;;;;;;;3.50;2.25;;;;;;;23.65;54.10;99914.34;1732988;83;21175;-80
2022/07/23 08:33:04;;;;;;;3.10;2.40;;;;;;;23.76;53.44;99914.69;1733039;83;21175;-81
2022/07/23 08:36:13;;;;;;;2.42;2.22;;;;;;;23.95;53.91;99917.27;1730939;83;21266;-81
2022/07/23 08:39:20;;;;;;;6.42;3.00;;;;;;;24.13;54.30;99930.43;1731767;83;21766;-81
2022/07/23 08:42:19;;;;;;;5.75;2.90;;;;;;;24.06;52.90;99916.73;1733076;81;21178;-80
2022/07/23 08:45:27;;;;;;;3.27;2.45;;;;;;;24.02;52.24;99917.56;1732459;83;22079;-80
2022/07/23 08:48:40;;;;;;;3.60;2.30;;;;;;;24.19;53.38;99919.02;1755139;80;21170;-80
2022/07/23 08:51:43;;;;;;;3.95;2.37;;;;;;;24.35;51.43;99928.26;1753477;81;21722;-80
2022/07/23 08:54:49;;;;;;;2.45;1.90;;;;;;;24.28;51.01;99915.13;1744998;80;21251;-81
2022/07/23 08:57:59;;;;;;;3.00;2.42;;;;;;;24.13;51.73;99908.08;1747792;81;21201;-81
2022/07/23 09:01:04;;;;;;;5.25;2.40;;;;;;;24.09;51.96;99907.81;1745031;81;21706;-81
2022/07/23 09:04:11;;;;;;;4.15;2.12;;;;;;;24.19;52.67;99909.80;1752509;81;21153;-81
2022/07/23 09:07:18;;;;;;;3.37;2.12;;;;;;;24.41;51.82;99906.77;1743457;81;21189;-81
2022/07/23 09:10:24;;;;;;;6.67;2.55;;;;;;;24.63;51.94;99910.72;1708473;83;21811;-80
2022/07/23 09:13:58;;;;;;;2.40;1.70;;;;;;;24.76;51.36;99909.33;1744713;81;21210;-80
2022/07/23 09:17:04;;;;;;;4.87;2.35;;;;;;;24.77;50.69;99916.03;1742802;81;21151;-81
2022/07/23 09:20:23;;;;;;;4.05;2.00;;;;;;;24.63;49.98;99907.36;1745812;81;21158;-80
2022/07/23 09:23:34;;;;;;;5.10;2.08;;;;;;;24.50;50.25;99914.89;1743531;81;21150;-81
2022/07/23 09:26:53;;;;;;;2.40;2.20;;;;;;;24.53;51.15;99900.94;1749717;81;21720;-81
2022/07/23 09:30:06;;;;;;;5.28;2.20;;;;;;;24.65;49.87;99905.67;1745966;81;21752;-80
2022/07/23 09:33:20;;;;;;;4.35;2.25;;;;;;;24.57;49.59;99904.85;1748783;81;21193;-81
2022/07/23 09:36:36;;;;;;;3.17;2.10;;;;;;;24.54;49.88;99895.61;1752746;81;21174;-80
2022/07/23 09:39:42;;;;;;;3.62;1.92;;;;;;;24.60;48.98;99906.51;1753748;81;21699;-81
2022/07/23 09:42:48;;;;;;;2.37;2.00;;;;;;;24.74;48.91;99902.59;1739865;81;21249;-81
2022/07/23 09:45:53;;;;;;;8.80;2.20;;;;;;;24.85;49.03;99904.30;1699925;83;21147;-81
2022/07/23 09:49:00;;;;;;;4.92;2.10;;;;;;;24.87;48.30;99911.00;1737901;82;21231;-80
2022/07/23 09:52:07;;;;;;;1.77;1.47;;;;;;;24.95;49.14;99901.48;1748882;81;21127;-79
2022/07/23 09:55:13;;;;;;;3.55;1.92;;;;;;;25.04;47.37;99893.36;1737450;82;21215;-80
2022/07/23 09:58:21;;;;;;;5.50;2.00;;;;;;;25.12;45.13;99894.20;1748820;81;21748;-80
2022/07/23 10:01:27;;;;;;;3.15;2.33;;;;;;;25.16;46.67;99900.91;1753357;81;21171;-80
2022/07/23 10:04:34;;;;;;;2.65;2.22;;;;;;;25.10;47.34;99896.45;1759440;81;21177;-81
2022/07/23 10:07:45;;;;;;;3.50;1.85;;;;;;;25.11;45.82;99893.93;1750007;81;21188;-81
2022/07/23 10:11:08;;;;;;;7.78;1.80;;;;;;;25.21;46.37;99893.91;1744394;81;21189;-81
2022/07/23 10:14:17;;;;;;;;;;;;;;;25.33;46.46;99898.38;1748726;81;21196;-81
2022/07/23 10:17:24;;;;;;;3.58;1.87;;;;;;;25.52;46.09;99898.59;1740970;81;20638;-81
2022/07/23 10:20:29;;;;;;;2.65;1.95;;;;;;;25.70;46.02;99890.41;1724835;83;21160;-81
2022/07/23 10:23:55;;;;;;;2.55;2.10;;;;;;;25.89;45.05;99902.41;1753202;81;21668;-81
2022/07/23 10:27:21;;;;;;;3.75;1.90;;;;;;;25.80;45.09;99895.16;1750138;81;21143;-81
2022/07/23 10:30:58;;;;;;;3.87;1.80;;;;;;;25.80;45.51;99881.72;1740997;81;21166;-80
2022/07/23 10:34:26;;;;;;;2.30;1.75;;;;;;;25.94;44.72;99885.56;1743455;81;21174;-81
2022/07/23 10:37:46;;;;;;;8.38;1.77;;;;;;;26.08;44.03;99893.61;1743221;81;21182;-80
2022/07/23 10:41:09;;;;;;;2.95;1.50;;;;;;;26.13;43.39;99882.38;1741418;81;21159;-80
2022/07/23 10:44:25;;;;;;;2.35;1.67;;;;;;;25.94;43.30;99888.37;1742009;81;21194;-80
2022/07/23 10:47:44;;;;;;;4.60;1.80;;;;;;;25.76;43.53;99877.81;1741701;81;21167;-80
2022/07/23 10:50:46;;;;;;;2.05;1.50;;;;;;;25.83;43.96;99871.31;1717443;81;21149;-81
2022/07/23 10:54:01;;;;;;;3.35;1.55;;;;;;;25.86;43.98;99867.95;1746210;81;21215;-81
2022/07/23 10:57:13;;;;;;;3.20;1.12;;;;;;;25.86;43.07;99864.58;1744383;81;21167;-81
2022/07/23 11:00:23;;;;;;;2.55;1.65;;;;;;;25.91;42.92;99869.32;1744360;81;21215;-81
2022/07/23 11:03:39;;;;;;;2.55;1.70;;;;;;;25.93;42.65;99867.92;1744617;81;21171;-81
2022/07/23 11:07:02;;;;;;;2.10;1.60;;;;;;;26.00;42.67;99860.58;1741700;81;21170;-80
2022/07/23 11:10:03;;;;;;;2.05;1.30;;;;;;;25.98;42.72;99864.25;1727318;81;21775;-81
2022/07/23 11:13:33;;;;;;;2.30;1.32;;;;;;;25.85;42.64;99863.48;1749100;81;21143;-80
2022/07/23 11:16:43;;;;;;;3.27;1.30;;;;;;;25.81;42.52;99862.38;1730623;82;21131;-80
2022/07/23 11:20:20;;;;;;;2.33;1.47;;;;;;;25.88;42.66;99854.52;1732371;82;21247;-80
2022/07/23 11:23:26;;;;;;;4.95;1.60;;;;;;;25.96;43.19;99857.52;1680183;83;21213;-80
2022/07/23 11:26:57;;;;;;;4.85;1.12;;;;;;;25.94;42.82;99858.38;1705611;81;21231;-81
2022/07/23 11:30:03;;;;;;;2.47;1.55;;;;;;;25.96;41.63;99860.89;1770060;81;21200;-80
2022/07/23 11:33:20;;;;;;;7.08;1.90;;;;;;;26.05;41.53;99846.55;1766427;81;21148;-80
2022/07/23 11:36:27;;;;;;;5.17;1.40;;;;;;;26.20;41.84;99854.84;1769177;81;21240;-80
2022/07/23 11:39:34;;;;;;;2.47;1.30;;;;;;;26.29;41.19;99855.63;1766992;81;21785;-80
2022/07/23 11:42:39;;;;;;;5.10;1.50;;;;;;;26.25;41.93;99855.37;1743510;81;21205;-81
2022/07/23 11:45:51;;;;;;;4.72;1.27;;;;;;;26.15;42.47;99846.47;1767826;81;21213;-81
2022/07/23 11:49:02;;;;;;;5.58;1.37;;;;;;;26.10;42.75;99843.70;1766202;81;21483;-81
2022/07/23 11:52:23;;;;;;;1.82;1.40;;;;;;;26.10;42.51;99850.70;1758155;81;21231;-81
2022/07/23 11:55:29;;;;;;;5.08;1.60;;;;;;;26.18;42.06;99839.45;1736765;81;21252;-80
2022/07/23 11:58:36;;;;;;;3.85;1.30;;;;;;;26.19;42.80;99844.77;1746650;81;21161;-81
2022/07/23 12:01:35;;;;;;;6.10;1.50;;;;;;;26.28;42.88;99842.75;1769662;81;21220;-81
2022/07/23 12:04:53;;;;;;;1.95;1.17;;;;;;;26.31;41.89;99846.38;1770730;81;21177;-81
2022/07/23 12:08:01;;;;;;;1.30;1.15;;;;;;;26.29;42.73;99861.23;1755272;81;21161;-81
2022/07/23 12:11:06;;;;;;;1.92;1.25;;;;;;;26.21;43.11;99855.14;1732803;81;21259;-81
2022/07/23 12:14:12;;;;;;;3.45;1.27;;;;;;;26.10;42.85;99864.72;1749879;80;21737;-80
2022/07/23 12:17:19;;;;;;;6.83;1.50;;;;;;;25.99;43.32;99852.75;1692848;85;21166;-80
2022/07/23 12:20:30;;;;;;;3.70;1.40;;;;;;;25.91;43.83;99858.11;1721058;83;21249;-81
2022/07/23 12:23:37;;;;;;;2.50;1.20;;;;;;;25.92;43.14;99847.17;1739346;81;21223;-81
2022/07/23 12:26:45;;;;;;;6.50;1.40;;;;;;;26.04;42.16;99850.48;1752884;81;21180;-80
2022/07/23 12:29:50;;;;;;;1.77;1.40;;;;;;;26.14;41.74;99860.22;1752164;81;21714;-81
2022/07/23 12:33:01;;;;;;;2.92;1.22;;;;;;;26.13;41.86;99845.94;1747563;82;21199;-80
2022/07/23 12:36:07;;;;;;;;;;;;;;;26.02;42.57;99868.16;1746332;82;21236;-80
2022/07/23 12:39:12;;;;;;;5.70;1.30;;;;;;;25.84;42.91;99859.02;1740535;80;20192;-80
2022/07/23 12:42:19;;;;;;;4.25;1.20;;;;;;;25.69;43.35;99856.53;1742827;82;21200;-80
2022/07/23 12:45:18;;;;;;;6.72;1.30;;;;;;;25.60;43.50;99863.84;1761507;81;21224;-80
2022/07/23 12:48:27;;;;;;;2.40;1.27;;;;;;;25.50;44.07;99858.27;1762317;81;21177;-81
2022/07/23 12:51:38;;;;;;;3.27;1.30;;;;;;;25.40;44.59;99863.91;1762436;81;21233;-81
2022/07/23 12:54:45;;;;;;;3.02;1.17;;;;;;;25.33;44.93;99850.80;1762470;81;21220;-81
2022/07/23 12:57:54;;;;;;;5.72;1.60;;;;;;;25.37;44.96;99853.30;1761454;81;21209;-81
2022/07/23 13:01:04;;;;;;;2.22;1.40;;;;;;;25.46;44.57;99848.79;1760651;81;21201;-81
2022/07/23 13:04:31;;;;;;;5.30;1.45;;;;;;;25.58;44.42;99850.68;1761706;81;21240;-81
2022/07/23 13:07:35;;;;;;;3.30;1.25;;;;;;;25.73;42.74;99841.36;1760413;81;21182;-81
2022/07/23 13:10:48;;;;;;;1.47;1.37;;;;;;;25.95;42.24;99853.61;1760553;81;21248;-81
2022/07/23 13:13:51;;;;;;;5.20;1.20;;;;;;;26.13;42.57;99845.10;1761808;81;21204;-81
2022/07/23 13:16:58;;;;;;;5.03;1.15;;;;;;;26.22;41.07;99865.22;1761411;81;21157;-80
2022/07/23 13:20:05;;;;;;;7.62;1.37;;;;;;;26.22;40.64;99851.20;1761411;81;21185;-81
2022/07/23 13:23:13;;;;;;;4.30;1.30;;;;;;;26.27;40.98;99842.48;1762786;81;21201;-81
2022/07/23 13:26:19;;;;;;;3.12;1.17;;;;;;;26.23;41.33;99845.86;1761505;81;21233;-80
2022/07/23 13:29:26;;;;;;;2.20;1.45;;;;;;;26.19;41.90;99839.16;1764290;80;21185;-80
2022/07/23 13:32:33;;;;;;;2.17;1.00;;;;;;;26.16;42.22;99845.36;1768055;81;21185;-80
2022/07/23 13:35:42;;;;;;;4.20;1.20;;;;;;;26.13;42.05;99862.75;1758667;81;21193;-80
2022/07/23 13:38:47;;;;;;;1.55;1.10;;;;;;;26.06;42.03;99844.01;1768286;81;21133;-81
2022/07/23 13:41:54;;;;;;;1.30;1.10;;;;;;;26.02;42.27;99838.73;1767578;81;21816;-81
2022/07/23 13:45:02;;;;;;;2.15;1.30;;;;;;;26.05;42.52;99845.14;1766603;81;21703;-80
2022/07/23 13:48:09;;;;;;;10.25;1.40;;;;;;;26.11;41.85;99834.19;1768161;81;21496;-81
2022/07/23 13:51:16;;;;;;;5.25;1.60;;;;;;;26.19;41.99;99839.73;1767336;81;21196;-80
2022/07/23 13:54:23;;;;;;;5.92;1.40;;;;;;;26.32;43.14;99836.27;1768113;81;21142;-80
2022/07/23 13:57:30;;;;;;;2.92;1.50;;;;;;;26.52;41.66;99835.86;1768356;81;21154;-80
2022/07/23 14:00:36;;;;;;;5.00;1.30;;;;;;;26.63;41.53;99834.63;1768312;81;21178;-81
2022/07/23 14:03:44;;;;;;;2.77;1.20;;;;;;;26.65;40.26;99845.01;1768275;81;21742;-81
2022/07/23 14:06:50;;;;;;;4.50;1.12;;;;;;;26.57;40.55;99848.44;1766713;81;21201;-81
2022/07/23 14:09:55;;;;;;;3.83;1.35;;;;;;;26.49;40.72;99842.91;1768067;81;21774;-80
2022/07/23 14:13:02;;;;;;;6.72;1.35;;;;;;;26.41;41.45;99844.90;1766762;81;21218;-80
2022/07/23 14:16:09;;;;;;;4.45;2.22;;;;;;;26.29;41.68;99843.02;1766744;81;21184;-80
2022/07/23 14:19:15;;;;;;;2.90;1.20;;;;;;;26.15;41.90;99852.08;1768236;81;21126;-81
2022/07/23 14:22:23;;;;;;;2.95;1.10;;;;;;;26.01;42.13;99881.87;1767766;81;21195;-80
2022/07/23 14:25:29;;;;;;;8.55;1.47;;;;;;;25.77;46.56;99869.67;1767566;81;21514;-80
2022/07/23 14:28:40;;;;;;;3.17;1.12;;;;;;;25.29;49.23;99866.47;1768209;81;21154;-81
2022/07/23 14:31:48;;;;;;;6.83;1.30;;;;;;;24.90;50.06;99862.89;1760620;80;21829;-81
2022/07/23 14:34:54;;;;;;;3.10;1.20;;;;;;;24.63;51.12;99861.23;1762677;81;21161;-80
2022/07/23 14:37:59;;;;;;;2.60;1.25;;;;;;;24.47;51.96;99866.55;1762777;81;21157;-80